Terminal Aerodrome Forecast
Issued by NWS Lake Charles, LA

Home | Current Version | Previous Version | Text Only | Print | Product List | Glossary On
Versions: 1 2 3 4 5 6 7 8 9 10 11 12 13 14 15 16 17 18 19
000
FTUS44 KLCH 292338
TAFARA
TAF
KARA 292338Z 3000/3024 15010G18KT P6SM VCSH SCT015 BKN025
     FM300600 16013KT P6SM VCSH SCT007 OVC015
     FM301500 18010KT P6SM VCTS SCT007 OVC015CB
      TEMPO 3015/3018 4SM TSRA BR BKN007CB
     FM301800 16010G18KT 4SM TSRA BR OVC015CB=

USA.gov is the U.S. government's official web portal to all federal, state and local government web resources and services.